Time;durP1;ratioP1;P1;durP2;ratioP2;P2;SDS_P1;SDS_P2;PMS_P1;PMS_P2;Temp;Humidity;BMP_temperature;BMP_pressure;BME280_temperature;BME280_humidity;BME280_pressure;Samples;Min_cycle;Max_cycle;Signal;HPM_P1;HPM_P2
2022/12/04 00:01:28;;;;;;;0.10;0.10;;;2.50;99.90;0.90;96698.00;;;;5074944;28;20194;-70
2022/12/04 00:04:00;;;;;;;0.20;0.20;;;2.50;99.90;0.80;96688.00;;;;5073468;28;20746;-71
2022/12/04 00:06:29;;;;;;;0.10;0.10;;;2.40;99.90;0.80;96687.00;;;;5074228;28;20665;-71
2022/12/04 00:08:57;;;;;;;0.10;0.10;;;2.40;99.90;0.90;96660.00;;;;5073718;28;20194;-70
2022/12/04 00:11:28;;;;;;;0.10;0.10;;;2.50;99.90;0.90;96654.00;;;;5073737;28;20684;-70
2022/12/04 00:14:00;;;;;;;0.10;0.10;;;2.50;99.90;0.90;96678.00;;;;5073619;28;20735;-69
2022/12/04 00:16:35;;;;;;;0.10;0.10;;;2.50;99.90;1.00;96633.00;;;;5073834;28;20197;-69
2022/12/04 00:19:04;;;;;;;0.00;0.00;;;2.50;99.90;1.00;96674.00;;;;5073342;28;20197;-70
2022/12/04 00:21:33;;;;;;;0.10;0.10;;;2.60;99.90;1.00;96691.00;;;;5077843;28;20578;-71
2022/12/04 00:24:01;;;;;;;0.10;0.10;;;2.60;99.90;1.10;96680.00;;;;5079195;28;20201;-71
2022/12/04 00:26:30;;;;;;;0.10;0.10;;;2.60;99.90;1.10;96715.00;;;;5075858;28;20201;-70
2022/12/04 00:29:00;;;;;;;0.10;0.10;;;2.60;99.90;0.90;96679.00;;;;5075664;28;20878;-71
2022/12/04 00:31:30;;;;;;;0.10;0.10;;;2.50;99.90;0.90;96673.00;;;;5074380;28;20197;-70
2022/12/04 00:34:00;;;;;;;0.10;0.10;;;2.50;99.90;0.90;96667.00;;;;5069176;28;20221;-72
2022/12/04 00:36:30;;;;;;;0.10;0.10;;;2.50;99.90;0.90;96662.00;;;;5073244;28;20227;-71
2022/12/04 00:39:00;;;;;;;0.10;0.10;;;2.50;99.90;0.90;96682.00;;;;5072334;28;20194;-71
2022/12/04 00:41:32;;;;;;;0.10;0.10;;;2.50;99.90;0.90;96669.00;;;;5072996;28;20201;-70
2022/12/04 00:44:03;;;;;;;0.10;0.10;;;2.40;99.90;0.90;96581.00;;;;5057172;28;20270;-71
2022/12/04 00:46:31;;;;;;;0.10;0.10;;;2.50;99.90;1.00;96656.00;;;;5073859;28;20202;-73
2022/12/04 00:49:01;;;;;;;0.10;0.10;;;2.50;99.90;1.00;96648.00;;;;5072397;28;20255;-72
2022/12/04 00:51:30;;;;;;;0.10;0.10;;;2.60;99.90;1.10;96654.00;;;;5072986;28;20198;-70
2022/12/04 00:53:58;;;;;;;0.10;0.10;;;2.60;99.90;1.00;96649.00;;;;5072068;28;20217;-71
2022/12/04 00:56:28;;;;;;;0.10;0.10;;;2.60;99.90;0.90;96586.00;;;;5072683;28;20251;-71
2022/12/04 00:59:00;;;;;;;0.10;0.10;;;2.50;99.90;0.90;96634.00;;;;5053866;28;20544;-71
2022/12/04 01:01:30;;;;;;;0.10;0.10;;;2.50;99.90;0.90;96671.00;;;;5072576;28;20194;-71
2022/12/04 01:03:59;;;;;;;0.10;0.10;;;2.50;99.90;1.00;96642.00;;;;5072022;28;20224;-71
2022/12/04 01:06:30;;;;;;;0.00;0.00;;;2.60;99.90;1.10;96639.00;;;;5072116;28;20193;-71
2022/12/04 01:09:03;;;;;;;0.10;0.10;;;2.60;99.90;1.00;96639.00;;;;5071980;28;20251;-71
2022/12/04 01:11:31;;;;;;;0.10;0.10;;;2.60;99.90;1.00;96650.00;;;;5072389;28;20200;-72
2022/12/04 01:14:00;;;;;;;0.10;0.10;;;2.60;99.90;1.00;96626.00;;;;5071938;28;20210;-71
2022/12/04 01:16:33;;;;;;;0.10;0.10;;;2.60;99.90;1.10;96637.00;;;;5076349;28;20247;-71
2022/12/04 01:19:04;;;;;;;0.10;0.10;;;2.60;99.90;1.10;96636.00;;;;5074955;28;20260;-70
2022/12/04 01:21:32;;;;;;;0.10;0.10;;;2.60;99.90;0.80;96620.00;;;;5074793;28;20900;-70
2022/12/04 01:24:00;;;;;;;0.10;0.10;;;2.40;99.90;0.80;96625.00;;;;5079937;28;20218;-72
2022/12/04 01:26:29;;;;;;;0.10;0.10;;;2.50;99.90;0.80;96629.00;;;;5072863;28;20266;-72
2022/12/04 01:28:57;;;;;;;0.10;0.10;;;2.50;99.90;0.90;96606.00;;;;5071552;28;20243;-71
2022/12/04 01:31:25;;;;;;;0.10;0.10;;;2.50;99.90;1.00;96604.00;;;;5065871;28;20195;-71
2022/12/04 01:33:55;;;;;;;0.10;0.10;;;2.50;99.90;1.00;96604.00;;;;5071870;28;20225;-71
2022/12/04 01:36:28;;;;;;;0.10;0.10;;;2.60;99.90;1.10;96616.00;;;;5072407;28;20213;-72
2022/12/04 01:38:57;;;;;;;0.10;0.10;;;2.60;99.90;1.10;96610.00;;;;5070887;28;20190;-71
2022/12/04 01:41:28;;;;;;;0.10;0.10;;;2.60;99.90;1.10;96596.00;;;;5058135;28;20232;-72
2022/12/04 01:44:09;;;;;;;0.10;0.10;;;2.60;99.90;1.00;96593.00;;;;5074294;28;20221;-71
2022/12/04 01:46:37;;;;;;;0.10;0.10;;;2.60;99.90;1.00;96588.00;;;;5068528;28;20217;-73
2022/12/04 01:49:14;;;;;;;0.10;0.10;;;2.60;99.90;0.90;96590.00;;;;5067878;28;20194;-72
2022/12/04 01:51:48;;;;;;;0.10;0.10;;;2.50;99.90;0.90;96590.00;;;;5068602;28;20298;-72
2022/12/04 01:54:27;;;;;;;0.10;0.10;;;2.50;99.90;0.90;96581.00;;;;5066298;28;20217;-72
2022/12/04 01:57:02;;;;;;;0.10;0.10;;;2.50;99.90;0.90;96581.00;;;;5064112;28;20201;-71
2022/12/04 01:59:38;;;;;;;0.10;0.10;;;2.50;99.90;0.80;96584.00;;;;5073812;28;20204;-71
2022/12/04 02:02:12;;;;;;;0.10;0.10;;;2.40;99.90;0.80;96588.00;;;;5071112;28;20250;-72
2022/12/04 02:04:43;;;;;;;0.10;0.10;;;2.40;99.90;0.70;96591.00;;;;5071136;28;20608;-72
2022/12/04 02:07:11;;;;;;;0.08;0.08;;;2.30;99.90;0.80;96608.00;;;;5071153;28;20712;-72
2022/12/04 02:09:42;;;;;;;0.10;0.10;;;2.40;99.90;0.80;96609.00;;;;5070587;28;20197;-73
2022/12/04 02:12:23;;;;;;;0.10;0.10;;;2.40;99.90;0.80;96597.00;;;;5071076;28;20247;-72
2022/12/04 02:15:03;;;;;;;0.10;0.10;;;2.50;99.90;0.90;96591.00;;;;5060308;28;20220;-72
2022/12/04 02:17:43;;;;;;;0.08;0.08;;;2.50;99.90;0.90;96601.00;;;;5070804;28;20197;-72
2022/12/04 02:20:26;;;;;;;0.10;0.10;;;2.50;99.90;0.90;96601.00;;;;5065658;28;20276;-72
2022/12/04 02:23:28;;;;;;;0.10;0.10;;;2.50;99.90;1.00;96596.00;;;;5070373;28;20194;-74
2022/12/04 02:26:17;;;;;;;0.10;0.10;;;2.50;99.90;1.00;96590.00;;;;5070888;28;20230;-71
2022/12/04 02:28:53;;;;;;;0.10;0.10;;;2.60;99.90;1.10;96595.00;;;;5070111;28;20742;-71
2022/12/04 02:31:31;;;;;;;0.10;0.10;;;2.60;99.90;0.90;96594.00;;;;5070887;28;20250;-72
2022/12/04 02:34:04;;;;;;;0.10;0.10;;;2.50;99.90;1.00;96598.00;;;;5069785;28;20217;-72
2022/12/04 02:36:42;;;;;;;0.10;0.10;;;2.50;99.90;0.90;96591.00;;;;5071209;28;20194;-71
2022/12/04 02:39:18;;;;;;;0.10;0.10;;;2.50;99.90;0.90;96596.00;;;;5070178;28;20242;-72
2022/12/04 02:41:55;;;;;;;0.10;0.10;;;2.50;99.90;0.90;96589.00;;;;5070479;28;20197;-70
2022/12/04 02:44:30;;;;;;;0.10;0.10;;;2.50;99.90;0.80;96577.00;;;;5069991;28;20266;-72
2022/12/04 02:47:05;;;;;;;0.03;0.03;;;2.40;99.90;0.60;96580.00;;;;5063356;28;20217;-71
2022/12/04 02:49:41;;;;;;;0.10;0.10;;;2.20;99.90;0.70;96590.00;;;;5065758;28;20197;-72
2022/12/04 02:52:14;;;;;;;0.10;0.10;;;2.30;99.90;0.70;96575.00;;;;5070138;28;20197;-72
2022/12/04 02:54:46;;;;;;;0.10;0.10;;;2.30;99.90;0.80;96569.00;;;;5071694;28;20248;-72
2022/12/04 02:57:25;;;;;;;0.10;0.10;;;2.40;99.90;0.90;96589.00;;;;5076374;28;20235;-71
2022/12/04 02:59:58;;;;;;;0.10;0.10;;;2.50;99.90;0.90;96597.00;;;;5069194;28;20193;-73
2022/12/04 03:02:34;;;;;;;0.10;0.10;;;2.50;99.90;0.90;96588.00;;;;5079357;28;20200;-71
2022/12/04 03:05:10;;;;;;;0.10;0.10;;;2.50;99.90;0.90;96576.00;;;;5071964;28;20300;-71
2022/12/04 03:07:45;;;;;;;0.10;0.10;;;2.50;99.90;0.90;96574.00;;;;5076768;28;20205;-72
2022/12/04 03:10:19;;;;;;;0.10;0.10;;;2.50;99.90;1.00;96579.00;;;;5074872;28;20193;-72
2022/12/04 03:12:54;;;;;;;0.10;0.10;;;2.60;99.90;1.00;96584.00;;;;5075307;28;20726;-73
2022/12/04 03:15:31;;;;;;;0.10;0.10;;;2.60;99.90;1.10;96584.00;;;;5077292;28;20628;-72
2022/12/04 03:18:05;;;;;;;0.10;0.10;;;2.60;99.90;1.10;96598.00;;;;5074536;28;20197;-72
2022/12/04 03:20:36;;;;;;;0.10;0.10;;;2.60;99.90;1.00;96572.00;;;;5070577;28;20657;-72
2022/12/04 03:23:11;;;;;;;0.10;0.10;;;2.60;99.90;0.90;96598.00;;;;5069761;28;20727;-72
2022/12/04 03:25:49;;;;;;;0.10;0.10;;;2.50;99.90;0.90;96592.00;;;;5069982;28;20836;-71
2022/12/04 03:28:27;;;;;;;0.10;0.10;;;2.50;99.90;0.80;96589.00;;;;5069637;28;20524;-71
2022/12/04 03:31:05;;;;;;;0.10;0.10;;;2.50;99.90;0.70;96591.00;;;;5069939;28;20204;-71
2022/12/04 03:33:42;;;;;;;0.10;0.10;;;2.40;99.90;0.70;96605.00;;;;5070051;28;20193;-72
2022/12/04 03:36:18;;;;;;;0.10;0.10;;;2.30;99.90;0.70;96595.00;;;;5070282;28;20255;-71
2022/12/04 03:38:55;;;;;;;0.10;0.10;;;2.30;99.90;0.70;96596.00;;;;5069676;28;20198;-71
2022/12/04 03:41:31;;;;;;;0.10;0.10;;;2.40;99.90;0.90;96585.00;;;;5070107;28;20202;-71
2022/12/04 03:44:10;;;;;;;0.10;0.10;;;2.50;99.90;1.00;96592.00;;;;5071473;28;20600;-72
2022/12/04 03:46:50;;;;;;;0.10;0.10;;;2.50;99.90;1.00;96586.00;;;;5079501;28;20213;-73
2022/12/04 03:49:24;;;;;;;0.10;0.10;;;2.50;99.90;1.00;96577.00;;;;5069682;28;20190;-71
2022/12/04 03:52:00;;;;;;;0.10;0.10;;;2.60;99.90;1.00;96587.00;;;;5059338;28;20250;-71
2022/12/04 03:54:34;;;;;;;0.10;0.10;;;2.60;99.90;1.00;96573.00;;;;5068567;28;20581;-71
2022/12/04 03:57:18;;;;;;;0.10;0.10;;;2.60;99.90;1.00;96572.00;;;;5069308;28;20614;-71
2022/12/04 03:59:58;;;;;;;0.10;0.10;;;2.60;99.90;1.00;96567.00;;;;5068129;28;20248;-71
2022/12/04 04:02:37;;;;;;;0.10;0.10;;;2.60;99.90;1.00;96583.00;;;;5073120;28;20227;-71
2022/12/04 04:05:10;;;;;;;0.10;0.10;;;2.60;99.90;1.00;96605.00;;;;5072969;28;20220;-71
2022/12/04 04:07:46;;;;;;;0.10;0.10;;;2.50;99.90;1.00;96571.00;;;;5072886;28;20217;-71
2022/12/04 04:10:18;;;;;;;0.10;0.10;;;2.50;99.90;1.00;96584.00;;;;5066820;28;20611;-71
2022/12/04 04:24:25;;;;;;;0.10;0.10;;;2.60;99.90;1.00;96564.00;;;;5068111;28;20205;-71
2022/12/04 04:26:55;;;;;;;0.10;0.10;;;2.60;99.90;1.00;96564.00;;;;5072272;28;20224;-71
2022/12/04 04:29:25;;;;;;;0.20;0.20;;;2.50;99.90;1.00;96563.00;;;;5071889;28;20272;-72
2022/12/04 04:32:03;;;;;;;0.10;0.10;;;2.50;99.90;1.10;96573.00;;;;5063740;28;20283;-72
2022/12/04 04:34:43;;;;;;;0.10;0.10;;;2.60;99.90;1.00;96580.00;;;;5072617;28;20254;-71
2022/12/04 04:37:26;;;;;;;0.10;0.10;;;2.60;99.90;1.00;96571.00;;;;5073134;28;20204;-72
2022/12/04 04:40:05;;;;;;;0.10;0.10;;;2.60;99.90;1.00;96566.00;;;;5073539;28;20244;-72
2022/12/04 04:42:43;;;;;;;0.10;0.10;;;2.50;99.90;1.00;96570.00;;;;5063901;28;20255;-71
2022/12/04 04:45:18;;;;;;;0.10;0.10;;;2.60;99.90;1.10;96578.00;;;;5072327;28;20621;-70
2022/12/04 04:47:52;;;;;;;0.10;0.10;;;2.60;99.90;1.10;96561.00;;;;5071614;28;20766;-70
2022/12/04 04:50:23;;;;;;;0.10;0.10;;;2.60;99.90;1.10;96568.00;;;;5071980;28;20817;-70
2022/12/04 04:52:59;;;;;;;0.10;0.10;;;2.60;99.90;1.10;96571.00;;;;5072301;28;20190;-71
2022/12/04 04:55:33;;;;;;;0.10;0.10;;;2.60;99.90;1.00;96563.00;;;;5072638;28;20223;-71
2022/12/04 04:58:08;;;;;;;0.10;0.10;;;2.60;99.90;1.00;96569.00;;;;5071538;28;20282;-71
2022/12/04 05:00:37;;;;;;;0.10;0.10;;;2.50;99.90;1.00;96567.00;;;;5072212;28;20238;-70
2022/12/04 05:03:05;;;;;;;0.10;0.10;;;2.50;99.90;1.00;96561.00;;;;5072484;28;20307;-71
2022/12/04 05:05:35;;;;;;;0.10;0.10;;;2.50;99.90;0.90;96558.00;;;;5072208;28;20218;-70
2022/12/04 05:08:03;;;;;;;0.10;0.10;;;2.50;99.90;1.00;96571.00;;;;5071967;28;20737;-71
2022/12/04 05:10:31;;;;;;;0.10;0.10;;;2.50;99.90;1.00;96567.00;;;;5071852;28;20665;-71
2022/12/04 05:12:59;;;;;;;0.10;0.10;;;2.50;99.90;1.00;96576.00;;;;5071013;28;20189;-70
2022/12/04 05:15:27;;;;;;;0.10;0.10;;;2.50;99.90;1.00;96562.00;;;;5072499;28;20218;-71
2022/12/04 05:17:56;;;;;;;0.15;0.15;;;2.50;99.90;1.10;96569.00;;;;5072054;28;20197;-70
2022/12/04 05:20:23;;;;;;;0.10;0.10;;;2.60;99.90;1.00;96561.00;;;;5064502;28;20194;-72
2022/12/04 05:22:53;;;;;;;0.10;0.10;;;2.50;99.90;0.90;96545.00;;;;5068223;28;20255;-73
2022/12/04 05:25:21;;;;;;;0.13;0.13;;;2.50;99.90;0.90;96557.00;;;;5058986;28;20225;-70
2022/12/04 05:27:49;;;;;;;0.15;0.15;;;2.50;99.90;1.00;96512.00;;;;5071099;28;20850;-70
2022/12/04 05:30:18;;;;;;;0.10;0.10;;;2.50;99.90;0.90;96551.00;;;;5071422;28;20201;-70
2022/12/04 05:32:46;;;;;;;0.10;0.10;;;2.50;99.90;0.90;96553.00;;;;5071487;28;20197;-72
2022/12/04 05:35:14;;;;;;;0.10;0.10;;;2.50;99.90;1.00;96556.00;;;;5071455;28;20646;-72
2022/12/04 05:37:44;;;;;;;0.17;0.17;;;2.50;99.90;1.00;96563.00;;;;5069120;28;20197;-70
2022/12/04 05:40:14;;;;;;;0.20;0.20;;;2.50;99.90;1.00;96549.00;;;;5066780;28;20197;-72
2022/12/04 05:42:42;;;;;;;0.10;0.10;;;2.50;99.90;0.90;96567.00;;;;5070768;28;20198;-71
2022/12/04 05:45:11;;;;;;;0.10;0.10;;;2.50;99.90;1.00;96560.00;;;;5071329;28;20209;-71
2022/12/04 05:47:40;;;;;;;0.10;0.10;;;2.50;99.90;1.00;96547.00;;;;5068936;28;20237;-70
2022/12/04 05:50:10;;;;;;;0.10;0.10;;;2.50;99.90;1.00;96559.00;;;;5071393;28;20198;-72
2022/12/04 05:52:39;;;;;;;0.10;0.10;;;2.50;99.90;1.00;96557.00;;;;5071158;28;20243;-71
2022/12/04 05:55:08;;;;;;;0.10;0.10;;;2.50;99.90;1.00;96553.00;;;;5070902;28;20209;-70
2022/12/04 05:57:37;;;;;;;0.10;0.10;;;2.50;99.90;1.00;96557.00;;;;5070647;28;20201;-70
2022/12/04 06:00:07;;;;;;;0.10;0.10;;;2.50;99.90;1.00;96555.00;;;;5070580;28;20194;-70
2022/12/04 06:02:38;;;;;;;0.10;0.10;;;2.50;99.90;1.00;96563.00;;;;5070530;28;20255;-70
2022/12/04 06:05:07;;;;;;;0.10;0.10;;;2.50;99.90;1.00;96568.00;;;;5063356;28;20213;-70
2022/12/04 06:07:35;;;;;;;0.10;0.10;;;2.50;99.90;1.00;96560.00;;;;5070577;28;20259;-71
2022/12/04 06:10:05;;;;;;;0.10;0.10;;;2.50;99.90;1.00;96560.00;;;;5067268;28;20665;-70
2022/12/04 06:12:34;;;;;;;0.10;0.10;;;2.50;99.90;0.90;96560.00;;;;5071179;28;20669;-73
2022/12/04 06:15:04;;;;;;;0.10;0.10;;;2.50;99.90;0.90;96560.00;;;;5063647;28;20271;-71
2022/12/04 06:17:32;;;;;;;0.10;0.10;;;2.50;99.90;0.90;96562.00;;;;5070310;28;20209;-71
2022/12/04 06:20:00;;;;;;;0.10;0.10;;;2.50;99.90;0.90;96578.00;;;;5065885;28;20263;-70
2022/12/04 06:22:35;;;;;;;0.10;0.10;;;2.50;99.90;0.90;96572.00;;;;5067328;28;20204;-70
2022/12/04 06:25:03;;;;;;;0.10;0.10;;;2.50;99.90;1.00;96585.00;;;;5070190;28;20210;-70
2022/12/04 06:27:31;;;;;;;0.10;0.10;;;2.50;99.90;1.00;96597.00;;;;5069755;28;20213;-70
2022/12/04 06:30:00;;;;;;;0.10;0.10;;;2.50;99.90;1.00;96592.00;;;;5070361;28;20201;-70
2022/12/04 06:32:29;;;;;;;0.10;0.10;;;2.50;99.90;1.10;96583.00;;;;5067984;28;20190;-71
2022/12/04 06:34:57;;;;;;;0.10;0.10;;;2.60;99.90;1.10;96587.00;;;;5066385;28;20228;-70
2022/12/04 06:37:26;;;;;;;0.10;0.10;;;2.60;99.90;1.10;96595.00;;;;5061762;28;20202;-70
2022/12/04 06:39:54;;;;;;;0.10;0.10;;;2.60;99.90;1.10;96592.00;;;;5069601;28;20827;-70
2022/12/04 06:42:22;;;;;;;0.10;0.10;;;2.60;99.90;1.00;96591.00;;;;5070490;28;20186;-70
2022/12/04 06:44:51;;;;;;;0.10;0.10;;;2.60;99.90;1.00;96591.00;;;;5068458;28;20213;-70
2022/12/04 06:47:19;;;;;;;0.10;0.10;;;2.50;99.90;1.00;96582.00;;;;5070304;28;20785;-71
2022/12/04 06:49:51;;;;;;;0.10;0.10;;;2.50;99.90;1.00;96582.00;;;;5059890;28;20250;-70
2022/12/04 06:52:19;;;;;;;0.10;0.10;;;2.50;99.90;1.00;96583.00;;;;5063653;28;20209;-70
2022/12/04 06:54:47;;;;;;;0.10;0.10;;;2.50;99.90;1.00;96582.00;;;;5070367;28;20217;-70
2022/12/04 06:57:15;;;;;;;0.10;0.10;;;2.50;99.90;0.90;96594.00;;;;5070475;28;20933;-71
2022/12/04 06:59:43;;;;;;;0.10;0.10;;;2.50;99.90;0.90;96595.00;;;;5071821;28;20976;-73
2022/12/04 07:02:11;;;;;;;0.10;0.10;;;2.50;99.90;1.00;96593.00;;;;5069426;28;20198;-70
2022/12/04 07:04:39;;;;;;;0.10;0.10;;;2.50;99.90;0.80;96602.00;;;;5072873;28;20256;-73
2022/12/04 07:07:10;;;;;;;0.10;0.10;;;2.40;99.90;0.90;96620.00;;;;5070428;28;20673;-71
2022/12/04 07:09:38;;;;;;;0.10;0.10;;;2.40;99.90;0.70;96596.00;;;;5069802;28;20202;-69
2022/12/04 07:12:06;;;;;;;0.10;0.10;;;2.30;99.90;0.80;96613.00;;;;5070116;28;20198;-70
2022/12/04 07:14:34;;;;;;;0.10;0.10;;;2.30;99.90;0.80;96623.00;;;;5070030;28;20213;-70
2022/12/04 07:17:03;;;;;;;0.10;0.10;;;2.40;99.90;0.90;96619.00;;;;5070027;28;20197;-70
2022/12/04 07:19:31;;;;;;;0.10;0.10;;;2.40;99.90;0.90;96614.00;;;;5069431;28;20201;-70
2022/12/04 07:21:59;;;;;;;0.10;0.10;;;2.50;99.90;1.00;96601.00;;;;5069705;28;20254;-70
2022/12/04 07:24:28;;;;;;;0.10;0.10;;;2.50;99.90;1.00;96613.00;;;;5070385;28;20278;-71
2022/12/04 07:26:57;;;;;;;0.10;0.10;;;2.50;99.90;1.00;96611.00;;;;5070042;28;20197;-71
2022/12/04 07:29:25;;;;;;;0.10;0.10;;;2.50;99.90;1.10;96610.00;;;;5068479;28;20270;-72
2022/12/04 07:31:53;;;;;;;0.10;0.10;;;2.60;99.90;0.70;96609.00;;;;5069968;28;20560;-71
2022/12/04 07:34:21;;;;;;;0.10;0.10;;;2.60;99.90;1.00;96605.00;;;;5069592;28;20216;-71
2022/12/04 07:36:49;;;;;;;0.10;0.10;;;2.60;99.90;1.10;96612.00;;;;5072909;28;20250;-71
2022/12/04 07:39:17;;;;;;;0.10;0.10;;;2.60;99.90;1.10;96623.00;;;;5062267;28;20206;-71
2022/12/04 07:41:47;;;;;;;0.10;0.10;;;2.60;99.90;1.10;96633.00;;;;5073650;28;20193;-71
2022/12/04 07:44:15;;;;;;;0.10;0.10;;;2.60;99.90;1.10;96621.00;;;;5072272;28;20254;-71
2022/12/04 07:46:43;;;;;;;0.10;0.10;;;2.60;99.90;1.10;96633.00;;;;5073785;28;20205;-70
2022/12/04 07:49:12;;;;;;;0.10;0.10;;;2.60;99.90;1.10;96596.00;;;;5072829;28;20226;-71
2022/12/04 07:51:40;;;;;;;0.10;0.10;;;2.60;99.90;1.10;96636.00;;;;5074369;28;20251;-72
2022/12/04 07:54:08;;;;;;;0.10;0.10;;;2.60;99.90;1.20;96652.00;;;;5073239;28;20681;-71
2022/12/04 07:56:37;;;;;;;0.10;0.10;;;2.60;99.90;1.20;96643.00;;;;5073135;28;20661;-72
2022/12/04 07:59:06;;;;;;;0.10;0.10;;;2.70;99.90;1.30;96643.00;;;;5073063;28;20606;-71
2022/12/04 08:01:34;;;;;;;0.10;0.10;;;2.70;99.90;1.30;96656.00;;;;5073721;28;20251;-71
2022/12/04 08:04:03;;;;;;;0.10;0.10;;;2.80;99.90;1.20;96657.00;;;;5072894;28;20781;-72
2022/12/04 08:06:34;;;;;;;0.10;0.10;;;2.70;99.90;1.20;96638.00;;;;5073588;28;20193;-71
2022/12/04 08:09:03;;;;;;;0.10;0.10;;;2.70;99.90;1.20;96629.00;;;;5064293;28;20221;-71
2022/12/04 08:11:37;;;;;;;0.10;0.10;;;2.70;99.90;1.20;96640.00;;;;5073085;28;20226;-72
2022/12/04 08:14:08;;;;;;;0.10;0.10;;;2.80;99.90;1.30;96644.00;;;;5069639;28;20213;-71
2022/12/04 08:16:36;;;;;;;0.10;0.10;;;2.80;99.90;1.30;96630.00;;;;5072874;28;20209;-71
2022/12/04 08:19:05;;;;;;;0.10;0.10;;;2.80;99.90;1.40;96597.00;;;;5071493;28;20206;-71
2022/12/04 08:21:34;;;;;;;0.10;0.10;;;2.80;99.90;1.40;96617.00;;;;5071188;28;20198;-72
2022/12/04 08:24:03;;;;;;;0.10;0.10;;;2.80;99.90;1.30;96614.00;;;;5072270;28;20297;-71
2022/12/04 08:26:33;;;;;;;0.10;0.10;;;2.80;99.90;1.20;96611.00;;;;5071729;28;20247;-71
2022/12/04 08:29:01;;;;;;;0.10;0.10;;;2.70;99.90;1.20;96623.00;;;;5072075;28;20222;-71
2022/12/04 08:31:34;;;;;;;0.10;0.10;;;2.70;99.90;1.30;96626.00;;;;5071866;28;20193;-71
2022/12/04 08:34:06;;;;;;;0.10;0.10;;;2.70;99.90;1.30;96643.00;;;;5067077;28;20715;-71
2022/12/04 08:36:35;;;;;;;0.10;0.10;;;2.70;99.90;1.30;96629.00;;;;5064557;28;20206;-72
2022/12/04 08:39:04;;;;;;;0.10;0.10;;;2.70;99.90;1.30;96634.00;;;;5063202;28;20259;-71
2022/12/04 08:41:32;;;;;;;0.10;0.10;;;2.70;99.90;1.30;96623.00;;;;5071485;28;20264;-72
2022/12/04 08:44:00;;;;;;;0.10;0.10;;;2.80;99.90;1.20;96609.00;;;;5071525;28;20255;-71
2022/12/04 08:46:31;;;;;;;0.20;0.20;;;2.80;99.90;1.20;96600.00;;;;5072114;28;20264;-71
2022/12/04 08:48:59;;;;;;;0.10;0.10;;;2.70;99.90;1.20;96601.00;;;;5070530;28;20222;-72
2022/12/04 08:51:30;;;;;;;0.10;0.10;;;2.70;99.90;1.20;96630.00;;;;5071741;28;20201;-71
2022/12/04 08:54:03;;;;;;;0.17;0.17;;;2.70;99.90;1.30;96588.00;;;;5071717;28;20221;-71
2022/12/04 08:56:33;;;;;;;0.10;0.10;;;2.80;99.90;1.30;96597.00;;;;5072196;28;20197;-72
2022/12/04 08:59:02;;;;;;;0.10;0.10;;;2.80;99.90;1.30;96584.00;;;;5070604;28;20662;-72
2022/12/04 09:01:31;;;;;;;0.10;0.10;;;2.80;99.90;1.30;96606.00;;;;5071915;28;20197;-72
2022/12/04 09:04:00;;;;;;;0.10;0.10;;;2.80;99.90;1.30;96614.00;;;;5071808;28;20224;-73
2022/12/04 09:06:28;;;;;;;0.10;0.10;;;2.80;99.90;1.40;96625.00;;;;5072315;28;20217;-73
2022/12/04 09:08:57;;;;;;;0.10;0.10;;;2.80;99.90;1.40;96615.00;;;;5070162;28;20267;-72
2022/12/04 09:11:28;;;;;;;0.10;0.10;;;2.80;99.90;1.20;96620.00;;;;5065639;28;20198;-73
2022/12/04 09:13:56;;;;;;;0.10;0.10;;;2.80;99.90;1.30;96662.00;;;;5068104;28;20224;-72
2022/12/04 09:16:26;;;;;;;0.10;0.10;;;2.80;99.90;1.30;96654.00;;;;5070357;28;20202;-72
2022/12/04 09:18:56;;;;;;;0.10;0.10;;;2.80;99.90;1.30;96649.00;;;;5069890;28;20339;-72
2022/12/04 09:21:25;;;;;;;0.10;0.10;;;2.80;99.90;1.30;96635.00;;;;5071796;28;20259;-73
2022/12/04 09:23:53;;;;;;;0.10;0.10;;;2.80;99.90;1.30;96664.00;;;;5071817;28;20724;-73
2022/12/04 09:26:25;;;;;;;0.10;0.10;;;2.80;99.90;1.40;96654.00;;;;5082271;28;20198;-73
2022/12/04 09:28:55;;;;;;;0.10;0.10;;;2.80;99.90;1.40;96635.00;;;;5070508;28;20218;-73
2022/12/04 09:31:24;;;;;;;0.10;0.10;;;2.80;99.90;1.40;96629.00;;;;5070226;28;20197;-73
2022/12/04 09:33:54;;;;;;;0.10;0.10;;;2.80;99.90;1.40;96644.00;;;;5070649;28;20216;-73
2022/12/04 09:36:22;;;;;;;0.10;0.10;;;2.90;99.90;1.50;96635.00;;;;5071817;28;20619;-73
2022/12/04 09:38:53;;;;;;;0.10;0.10;;;2.90;99.90;1.50;96662.00;;;;5071415;28;20209;-73
2022/12/04 09:41:50;;;;;;;0.10;0.10;;;2.90;99.90;1.50;96631.00;;;;5071654;28;20185;-73
2022/12/04 09:44:23;;;;;;;0.10;0.10;;;2.90;99.90;1.50;96640.00;;;;5059166;28;20237;-73
2022/12/04 09:46:58;;;;;;;0.10;0.10;;;3.00;99.90;1.60;96631.00;;;;5070609;28;20251;-73
2022/12/04 09:49:35;;;;;;;0.10;0.10;;;3.00;99.90;1.50;96623.00;;;;5070793;28;20217;-74
2022/12/04 09:52:13;;;;;;;0.10;0.10;;;3.00;99.90;1.60;96633.00;;;;5045769;28;20197;-73
2022/12/04 09:54:51;;;;;;;0.10;0.10;;;3.00;99.90;1.60;96614.00;;;;5070985;28;20213;-74
2022/12/04 09:57:29;;;;;;;0.10;0.10;;;3.00;99.90;1.60;96621.00;;;;5070571;28;20251;-73
2022/12/04 09:59:58;;;;;;;0.10;0.10;;;3.00;99.90;1.60;96630.00;;;;5070385;28;20673;-73
2022/12/04 10:02:37;;;;;;;0.10;0.10;;;3.00;99.90;1.60;96647.00;;;;5070907;28;20201;-74
2022/12/04 10:05:18;;;;;;;0.10;0.10;;;3.10;99.90;1.50;96644.00;;;;5071099;28;20716;-73
2022/12/04 10:08:03;;;;;;;0.10;0.10;;;3.00;99.90;1.50;96649.00;;;;5070490;28;20205;-74
2022/12/04 10:10:40;;;;;;;0.10;0.10;;;3.00;99.90;1.40;96658.00;;;;5060646;28;20561;-73
2022/12/04 10:13:40;;;;;;;0.10;0.10;;;2.90;99.90;1.50;96655.00;;;;5070973;28;20604;-73
2022/12/04 10:16:17;;;;;;;0.10;0.10;;;2.90;99.90;1.60;96666.00;;;;5070754;28;20563;-73
2022/12/04 10:18:58;;;;;;;0.10;0.10;;;3.00;99.90;1.60;96653.00;;;;5070526;28;20197;-73
2022/12/04 10:21:53;;;;;;;0.10;0.10;;;3.10;99.90;1.70;96645.00;;;;5071705;28;20193;-73
2022/12/04 10:24:40;;;;;;;0.10;0.10;;;3.10;99.90;1.70;96672.00;;;;5065910;28;20217;-73
2022/12/04 10:27:18;;;;;;;0.10;0.10;;;3.10;99.90;1.70;96708.00;;;;5064360;28;20272;-73
2022/12/04 10:29:52;;;;;;;0.10;0.10;;;3.20;99.90;1.80;96684.00;;;;5069925;28;20267;-73
2022/12/04 10:32:26;;;;;;;0.10;0.10;;;3.20;99.90;1.80;96676.00;;;;5067365;28;20201;-73
2022/12/04 10:34:58;;;;;;;0.10;0.10;;;3.20;99.90;1.80;96671.00;;;;5071017;28;20214;-73
2022/12/04 10:37:28;;;;;;;0.10;0.10;;;3.20;99.90;1.90;96690.00;;;;5065852;28;20255;-73
2022/12/04 10:40:08;;;;;;;0.10;0.10;;;3.30;99.90;1.80;96697.00;;;;5062654;28;20278;-73
2022/12/04 10:42:45;;;;;;;0.10;0.10;;;3.30;99.90;1.90;96666.00;;;;5069218;28;20193;-73
2022/12/04 10:45:13;;;;;;;0.10;0.10;;;3.30;99.90;1.90;96659.00;;;;5071207;28;20217;-73
2022/12/04 10:47:48;;;;;;;0.10;0.10;;;3.30;99.90;1.90;96630.00;;;;5071172;28;20679;-74
2022/12/04 10:50:20;;;;;;;0.10;0.10;;;3.30;99.90;1.90;96638.00;;;;5068590;28;20240;-74
2022/12/04 10:52:51;;;;;;;0.10;0.10;;;3.30;99.90;1.80;96579.00;;;;5070570;28;20198;-73
2022/12/04 10:55:29;;;;;;;0.10;0.10;;;3.30;99.90;1.80;96633.00;;;;5066251;28;20641;-73
2022/12/04 10:57:57;;;;;;;0.10;0.10;;;3.20;99.90;1.70;96636.00;;;;5060420;28;20231;-73
2022/12/04 11:00:30;;;;;;;0.10;0.10;;;3.20;99.90;1.70;96619.00;;;;5070318;28;20212;-73
2022/12/04 11:03:02;;;;;;;0.10;0.10;;;3.10;99.90;1.70;96623.00;;;;5059217;28;20217;-73
2022/12/04 11:05:35;;;;;;;0.10;0.10;;;3.20;99.90;1.80;96627.00;;;;5067928;28;20217;-73
2022/12/04 11:08:07;;;;;;;0.10;0.10;;;3.20;99.90;1.90;96630.00;;;;5070832;28;20266;-73
2022/12/04 11:10:38;;;;;;;0.10;0.10;;;3.30;99.90;1.70;96628.00;;;;5072137;28;20267;-73
2022/12/04 11:13:16;;;;;;;0.00;0.00;;;3.20;99.90;1.70;96621.00;;;;5073340;28;20730;-73
2022/12/04 11:15:48;;;;;;;0.10;0.10;;;3.20;99.90;1.70;96599.00;;;;5073634;28;20247;-73
2022/12/04 11:18:20;;;;;;;0.10;0.10;;;3.20;99.90;1.80;96625.00;;;;5072749;28;20201;-73
2022/12/04 11:20:56;;;;;;;0.15;0.15;;;3.20;99.90;1.80;96624.00;;;;5075361;28;20228;-73
2022/12/04 11:23:29;;;;;;;0.10;0.10;;;3.20;99.90;1.80;96623.00;;;;5075827;28;20205;-73
2022/12/04 11:26:00;;;;;;;0.10;0.10;;;3.20;99.90;1.80;96620.00;;;;5077243;28;20205;-73
2022/12/04 11:28:36;;;;;;;0.10;0.10;;;3.20;99.90;1.80;96636.00;;;;5073513;28;20258;-73
2022/12/04 11:31:18;;;;;;;0.10;0.10;;;3.20;99.90;1.80;96633.00;;;;5064388;28;20217;-73
2022/12/04 11:33:49;;;;;;;0.10;0.10;;;3.20;99.90;1.80;96622.00;;;;5069568;28;20272;-72
2022/12/04 11:36:23;;;;;;;0.10;0.10;;;3.30;99.90;1.90;96625.00;;;;5070804;28;20196;-72
2022/12/04 11:39:05;;;;;;;0.10;0.10;;;3.30;99.90;1.90;96623.00;;;;5069999;28;20673;-73
2022/12/04 11:41:34;;;;;;;0.10;0.10;;;3.30;99.90;1.90;96551.00;;;;5069629;28;20730;-72
2022/12/04 11:44:02;;;;;;;0.10;0.10;;;3.30;99.90;1.90;96589.00;;;;5069570;28;20232;-73